createdAt,value
2019-02-24T00:00:03.235Z,90.3
2019-02-24T00:01:03.558Z,91.2
2019-02-24T00:02:03.203Z,91.4
2019-02-24T00:03:03.010Z,91.4
2019-02-24T00:04:03.352Z,92.1
2019-02-24T00:05:03.425Z,91.2
2019-02-24T00:06:02.905Z,92.1
2019-02-24T00:07:03.668Z,90.5
2019-02-24T00:08:02.914Z,92.1
2019-02-24T00:09:03.616Z,90.5
2019-02-24T00:10:03.222Z,91
2019-02-24T00:11:02.779Z,92.1
2019-02-24T00:12:03.127Z,93.1
2019-02-24T00:13:03.787Z,94
2019-02-24T00:14:03.021Z,94.5
2019-02-24T00:15:03.777Z,93.8
2019-02-24T00:16:03.034Z,93.3
2019-02-24T00:17:03.587Z,91.4
2019-02-24T00:18:03.097Z,91.9
2019-02-24T00:19:04.083Z,91
2019-02-24T00:20:03.285Z,90
2019-02-24T00:21:03.818Z,91.2
2019-02-24T00:22:01.863Z,91
2019-02-24T00:23:02.979Z,89.3
2019-02-24T00:24:03.209Z,91.2
2019-02-24T00:25:03.601Z,89.8
2019-02-24T00:26:04.950Z,89.8
2019-02-24T00:27:03.830Z,88.9
2019-02-24T00:28:07.663Z,88.2
2019-02-24T00:29:03.533Z,90.5
2019-02-24T00:30:03.148Z,91
2019-02-24T00:31:03.581Z,90.7
2019-02-24T00:32:03.746Z,91.9
2019-02-24T00:33:03.229Z,93.1
2019-02-24T00:34:03.772Z,92.8
2019-02-24T00:35:03.032Z,94.7
2019-02-24T00:36:03.718Z,94.9
2019-02-24T00:37:02.928Z,93.1
2019-02-24T00:38:03.706Z,93.8
2019-02-24T00:39:03.166Z,92.4
2019-02-24T00:40:03.553Z,92.1
2019-02-24T00:41:03.410Z,92.8
2019-02-24T00:42:03.521Z,92.4
2019-02-24T00:43:03.738Z,93.3
2019-02-24T00:44:02.854Z,92.8
2019-02-24T00:45:03.313Z,93.1
2019-02-24T00:46:02.844Z,94
2019-02-24T00:47:03.283Z,93.5
2019-02-24T00:48:03.052Z,92.6
2019-02-24T00:49:03.809Z,95.2
2019-02-24T00:50:03.373Z,94
2019-02-24T00:51:03.592Z,92.6
2019-02-24T00:52:03.320Z,92.1
2019-02-24T00:53:03.824Z,92.6
2019-02-24T00:54:03.431Z,92.4
2019-02-24T00:55:03.163Z,91.4
2019-02-24T00:56:03.225Z,91.7
2019-02-24T00:57:03.538Z,93.5
2019-02-24T00:58:03.184Z,92.6
2019-02-24T00:59:03.549Z,91.7
2019-02-24T01:00:02.991Z,92.4
2019-02-24T01:01:03.854Z,91.7
2019-02-24T01:02:02.985Z,93.5
2019-02-24T01:03:03.132Z,91.9
2019-02-24T01:04:03.273Z,94
2019-02-24T01:05:03.885Z,93.3
2019-02-24T01:06:03.403Z,93.8
2019-02-24T01:07:03.597Z,93.1
2019-02-24T01:08:02.982Z,94.5
2019-02-24T01:09:03.516Z,93.1
2019-02-24T01:10:03.101Z,94
2019-02-24T01:11:03.406Z,92.6
2019-02-24T01:12:02.818Z,92.4
2019-02-24T01:13:03.302Z,90.7
2019-02-24T01:14:03.892Z,90.3
2019-02-24T01:15:03.546Z,89.1
2019-02-24T01:16:02.999Z,88.6
2019-02-24T01:17:03.391Z,90.3
2019-02-24T01:18:03.957Z,90.3
2019-02-24T01:19:03.051Z,89.8
2019-02-24T01:20:03.613Z,89.6
2019-02-24T01:21:02.840Z,91.2
2019-02-24T01:22:03.812Z,90.7
2019-02-24T01:23:03.164Z,93.1
2019-02-24T01:24:03.699Z,93.1
2019-02-24T01:25:03.190Z,95.4
2019-02-24T01:26:03.370Z,94
2019-02-24T01:27:03.791Z,94.7
2019-02-24T01:28:03.342Z,94
2019-02-24T01:29:02.928Z,95.4
2019-02-24T01:30:03.539Z,96.1
2019-02-24T01:31:03.034Z,95.6
2019-02-24T01:32:03.592Z,96.3
2019-02-24T01:33:03.055Z,95.2
2019-02-24T01:34:03.280Z,96.8
2019-02-24T01:35:02.946Z,94.9
2019-02-24T01:36:03.293Z,96.3
2019-02-24T01:37:03.642Z,95.6
2019-02-24T01:38:03.184Z,97.5
2019-02-24T01:39:03.870Z,97.5
2019-02-24T01:40:03.164Z,98
2019-02-24T01:41:02.939Z,100.3
2019-02-24T01:42:02.914Z,99.4
2019-02-24T01:43:03.861Z,99.6
2019-02-24T01:44:02.934Z,100.1
2019-02-24T01:45:03.785Z,97.3
2019-02-24T01:46:02.940Z,98
2019-02-24T01:47:03.669Z,96.8
2019-02-24T01:48:02.775Z,95.6
2019-02-24T01:49:03.538Z,97.3
2019-02-24T01:50:03.810Z,97.7
2019-02-24T01:51:03.330Z,95.4
2019-02-24T01:52:04.603Z,96.1
2019-02-24T01:53:02.819Z,96.8
2019-02-24T01:54:03.567Z,97.3
2019-02-24T01:55:03.841Z,95.6
2019-02-24T01:56:03.005Z,96.8
2019-02-24T01:57:02.842Z,97
2019-02-24T01:58:03.378Z,96.3
2019-02-24T01:59:03.758Z,97.3
2019-02-24T02:00:03.560Z,97.3
2019-02-24T02:01:02.833Z,97
2019-02-24T02:02:03.001Z,99.1
2019-02-24T02:03:03.653Z,96.8
2019-02-24T02:04:03.505Z,98.4
2019-02-24T02:05:03.544Z,97.5
2019-02-24T02:06:02.949Z,98.2
2019-02-24T02:07:03.286Z,98
2019-02-24T02:08:03.664Z,99.8
2019-02-24T02:09:03.138Z,98
2019-02-24T02:10:04.070Z,100.5
2019-02-24T02:11:03.061Z,100.3
2019-02-24T02:12:03.594Z,101
2019-02-24T02:13:03.327Z,101.7
2019-02-24T02:14:03.605Z,102.4
2019-02-24T02:15:03.194Z,101.2
2019-02-24T02:16:03.370Z,102.4
2019-02-24T02:17:02.942Z,102.4
2019-02-24T02:18:03.090Z,102.6
2019-02-24T02:19:02.758Z,102.4
2019-02-24T02:20:03.158Z,103.3
2019-02-24T02:21:03.436Z,103.8
2019-02-24T02:22:03.629Z,101
2019-02-24T02:23:02.933Z,100.8
2019-02-24T02:24:02.771Z,99.1
2019-02-24T02:25:03.553Z,99.4
2019-02-24T02:26:02.726Z,98
2019-02-24T02:27:03.540Z,97
2019-02-24T02:28:03.827Z,97.5
2019-02-24T02:29:03.346Z,98
2019-02-24T02:30:03.802Z,95.9
2019-02-24T02:31:02.968Z,96.3
2019-02-24T02:32:03.632Z,95.6
2019-02-24T02:33:03.093Z,96.1
2019-02-24T02:34:03.534Z,94.5
2019-02-24T02:35:03.417Z,94.7
2019-02-24T02:36:03.453Z,94.9
2019-02-24T02:37:03.053Z,94
2019-02-24T02:38:03.673Z,93.5
2019-02-24T02:39:03.267Z,93.1
2019-02-24T02:40:03.692Z,92.4
2019-02-24T02:41:03.121Z,92.4
2019-02-24T02:42:03.248Z,89.3
2019-02-24T02:43:02.988Z,90.7
2019-02-24T02:44:03.679Z,91.2
2019-02-24T02:45:03.253Z,90.7
2019-02-24T02:46:03.472Z,92.1
2019-02-24T02:47:02.788Z,91.7
2019-02-24T02:48:02.964Z,91.7
2019-02-24T02:49:04.884Z,92.8
2019-02-24T02:50:03.342Z,92.4
2019-02-24T02:51:03.706Z,92.6
2019-02-24T02:52:02.925Z,91.4
2019-02-24T02:53:03.216Z,93.5
2019-02-24T02:54:03.793Z,93.1
2019-02-24T02:55:03.111Z,93.8
2019-02-24T02:56:02.783Z,93.8
2019-02-24T02:57:03.201Z,94
2019-02-24T02:58:03.436Z,94.5
2019-02-24T02:59:02.979Z,95.9
2019-02-24T03:00:03.416Z,95.6
2019-02-24T03:01:03.779Z,96.3
2019-02-24T03:02:03.589Z,96.6
2019-02-24T03:03:02.981Z,94.5
2019-02-24T03:04:03.231Z,95.4
2019-02-24T03:05:03.665Z,96.3
2019-02-24T03:06:02.808Z,96.8
2019-02-24T03:07:03.508Z,95.6
2019-02-24T03:08:03.698Z,95.4
2019-02-24T03:09:03.221Z,93.5
2019-02-24T03:10:03.960Z,92.8
2019-02-24T03:11:03.227Z,92.6
2019-02-24T03:12:02.978Z,91.7
2019-02-24T03:13:03.276Z,92.1
2019-02-24T03:14:03.143Z,92.4
2019-02-24T03:15:03.807Z,90.5
2019-02-24T03:16:03.796Z,92.6
2019-02-24T03:17:03.395Z,91.9
2019-02-24T03:18:03.662Z,91.9
2019-02-24T03:19:03.586Z,91
2019-02-24T03:20:02.815Z,91.4
2019-02-24T03:21:03.263Z,93.5
2019-02-24T03:22:02.973Z,92.1
2019-02-24T03:23:03.319Z,92.4
2019-02-24T03:24:03.687Z,94.7
2019-02-24T03:25:03.194Z,93.1
2019-02-24T03:26:02.846Z,92.8
2019-02-24T03:27:03.062Z,93.3
2019-02-24T03:28:03.602Z,92.8
2019-02-24T03:29:04.813Z,94
2019-02-24T03:30:03.780Z,92.6
2019-02-24T03:31:02.929Z,91.9
2019-02-24T03:32:03.231Z,92.4
2019-02-24T03:33:03.746Z,93.8
2019-02-24T03:34:03.025Z,89.6
2019-02-24T03:35:03.912Z,93.3
2019-02-24T03:36:03.000Z,91.7
2019-02-24T03:37:03.397Z,92.1
2019-02-24T03:38:02.717Z,92.6
2019-02-24T03:39:03.782Z,94.5
2019-02-24T03:40:03.193Z,94.5
2019-02-24T03:41:03.430Z,96.3
2019-02-24T03:42:03.944Z,93.8
2019-02-24T03:43:03.227Z,95.6
2019-02-24T03:44:03.514Z,96.8
2019-02-24T03:45:03.060Z,96.1
2019-02-24T03:46:03.869Z,97.3
2019-02-24T03:47:03.411Z,95.9
2019-02-24T03:48:03.627Z,94
2019-02-24T03:49:02.847Z,96.6
2019-02-24T03:50:03.597Z,93.8
2019-02-24T03:51:02.941Z,97
2019-02-24T03:52:03.334Z,95.2
2019-02-24T03:53:02.964Z,96.3
2019-02-24T03:54:03.011Z,95.6
2019-02-24T03:55:03.745Z,97.5
2019-02-24T03:56:03.057Z,96.3
2019-02-24T03:57:03.827Z,96.6
2019-02-24T03:58:02.893Z,99.1
2019-02-24T03:59:03.495Z,96.6
2019-02-24T04:00:03.420Z,94.7
2019-02-24T04:01:03.917Z,95.4
2019-02-24T04:02:03.195Z,95.2
2019-02-24T04:03:03.598Z,92.8
2019-02-24T04:04:03.261Z,92.4
2019-02-24T04:05:03.884Z,92.6
2019-02-24T04:06:03.713Z,90.5
2019-02-24T04:07:03.575Z,91
2019-02-24T04:08:03.120Z,90
2019-02-24T04:09:03.411Z,91.2
2019-02-24T04:10:02.812Z,91
2019-02-24T04:11:03.688Z,91
2019-02-24T04:12:03.136Z,91.7
2019-02-24T04:13:03.471Z,91.7
2019-02-24T04:14:03.024Z,91.9
2019-02-24T04:15:03.617Z,91.2
2019-02-24T04:16:03.478Z,92.8
2019-02-24T04:17:03.026Z,92.1
2019-02-24T04:18:03.703Z,92.6
2019-02-24T04:19:02.902Z,91.4
2019-02-24T04:20:02.890Z,91
2019-02-24T04:21:03.951Z,91
2019-02-24T04:22:03.213Z,90.5
2019-02-24T04:23:03.638Z,90.3
2019-02-24T04:24:02.983Z,92.1
2019-02-24T04:25:03.579Z,91.7
2019-02-24T04:26:03.093Z,90.7
2019-02-24T04:27:03.455Z,91.9
2019-02-24T04:28:02.971Z,91
2019-02-24T04:29:03.331Z,92.1
2019-02-24T04:30:03.938Z,91.2
2019-02-24T04:31:03.292Z,90.7
2019-02-24T04:32:03.667Z,91.2
2019-02-24T04:33:03.044Z,91
2019-02-24T04:34:03.165Z,90.7
2019-02-24T04:35:03.749Z,92.4
2019-02-24T04:36:03.247Z,91.2
2019-02-24T04:37:04.053Z,90.7
2019-02-24T04:38:02.904Z,90.5
2019-02-24T04:39:03.606Z,90.5
2019-02-24T04:40:03.027Z,88.9
2019-02-24T04:41:03.658Z,89.1
2019-02-24T04:42:02.864Z,88.2
2019-02-24T04:43:03.331Z,88.2
2019-02-24T04:44:03.128Z,87.5
2019-02-24T04:45:03.286Z,86.8
2019-02-24T04:46:03.597Z,87.2
2019-02-24T04:47:03.205Z,87.7
2019-02-24T04:48:03.353Z,86.8
2019-02-24T04:49:02.854Z,88.2
2019-02-24T04:50:03.482Z,86.3
2019-02-24T04:51:03.738Z,87.9
2019-02-24T04:52:03.096Z,86.1
2019-02-24T04:53:03.504Z,86.5
2019-02-24T04:54:03.119Z,86.8
2019-02-24T04:55:03.331Z,87
2019-02-24T04:56:03.109Z,87.2
2019-02-24T04:57:03.517Z,86.1
2019-02-24T04:58:04.091Z,87.2
2019-02-24T04:59:03.318Z,86.3
2019-02-24T05:00:03.043Z,85.8
2019-02-24T05:01:03.346Z,85.8
2019-02-24T05:02:02.847Z,87
2019-02-24T05:03:03.351Z,85.8
2019-02-24T05:04:02.897Z,87.2
2019-02-24T05:05:03.327Z,87.2
2019-02-24T05:06:02.952Z,87.7
2019-02-24T05:07:03.227Z,88.4
2019-02-24T05:08:03.733Z,88.4
2019-02-24T05:09:03.349Z,88.4
2019-02-24T05:10:03.158Z,89.3
2019-02-24T05:11:02.950Z,88.6
2019-02-24T05:12:03.538Z,88.9
2019-02-24T05:13:03.135Z,89.8
2019-02-24T05:14:03.292Z,90.7
2019-02-24T05:15:03.865Z,90.3
2019-02-24T05:16:03.717Z,91.9
2019-02-24T05:17:03.211Z,92.6
2019-02-24T05:18:03.658Z,92.1
2019-02-24T05:19:03.277Z,92.6
2019-02-24T05:20:03.855Z,92.4
2019-02-24T05:21:03.560Z,91
2019-02-24T05:22:03.611Z,91.4
2019-02-24T05:23:02.978Z,90.7
2019-02-24T05:24:03.398Z,91.2
2019-02-24T05:25:03.889Z,89.8
2019-02-24T05:26:03.434Z,89.8
2019-02-24T05:27:02.951Z,89.6
2019-02-24T05:28:03.027Z,88.9
2019-02-24T05:29:03.392Z,90
2019-02-24T05:30:03.043Z,89.1
2019-02-24T05:31:03.746Z,90.7
2019-02-24T05:32:02.862Z,88.9
2019-02-24T05:33:03.555Z,90.3
2019-02-24T05:34:02.775Z,90.3
2019-02-24T05:35:03.582Z,90
2019-02-24T05:36:03.732Z,90
2019-02-24T05:37:03.498Z,89.1
2019-02-24T05:38:02.899Z,90.5
2019-02-24T05:39:03.241Z,90
2019-02-24T05:40:02.984Z,89.1
2019-02-24T05:41:03.048Z,90
2019-02-24T05:42:03.464Z,89.6
2019-02-24T05:43:03.049Z,90.3
2019-02-24T05:44:03.631Z,90.5
2019-02-24T05:45:03.076Z,89.8
2019-02-24T05:46:04.030Z,90
2019-02-24T05:47:02.978Z,90.7
2019-02-24T05:48:03.414Z,90.5
2019-02-24T05:49:03.692Z,91.7
2019-02-24T05:50:03.730Z,92.6
2019-02-24T05:51:03.130Z,91.7
2019-02-24T05:52:03.606Z,91.7
2019-02-24T05:53:03.762Z,90.3
2019-02-24T05:54:03.121Z,89.1
2019-02-24T05:55:03.614Z,89.6
2019-02-24T05:56:03.068Z,90.5
2019-02-24T05:57:03.899Z,88.6
2019-02-24T05:58:02.934Z,90.5
2019-02-24T05:59:03.837Z,89.8
2019-02-24T06:00:03.242Z,90.5
2019-02-24T06:01:03.601Z,90.7
2019-02-24T06:02:03.758Z,90.3
2019-02-24T06:03:03.679Z,91.7
2019-02-24T06:04:02.903Z,90.3
2019-02-24T06:05:03.613Z,91
2019-02-24T06:06:03.792Z,91
2019-02-24T06:07:02.990Z,90.5
2019-02-24T06:08:03.472Z,89.8
2019-02-24T06:09:03.242Z,89.3
2019-02-24T06:10:03.527Z,89.6
2019-02-24T06:11:03.005Z,89.8
2019-02-24T06:12:03.718Z,87.7
2019-02-24T06:13:02.757Z,89.3
2019-02-24T06:14:03.358Z,88.6
2019-02-24T06:15:04.015Z,86.1
2019-02-24T06:16:02.869Z,86.1
2019-02-24T06:17:03.890Z,85.6
2019-02-24T06:18:03.378Z,85.6
2019-02-24T06:19:03.656Z,86.3
2019-02-24T06:20:03.332Z,88.2
2019-02-24T06:21:03.706Z,87.9
2019-02-24T06:22:03.689Z,88.9
2019-02-24T06:23:03.323Z,89.6
2019-02-24T06:24:03.064Z,88.9
2019-02-24T06:25:03.403Z,88.6
2019-02-24T06:26:03.719Z,88.2
2019-02-24T06:27:03.177Z,89.6
2019-02-24T06:28:03.627Z,88.6
2019-02-24T06:29:02.968Z,89.1
2019-02-24T06:30:06.081Z,88.6
2019-02-24T06:31:03.120Z,90.7
2019-02-24T06:32:03.625Z,88.9
2019-02-24T06:33:03.048Z,91.9
2019-02-24T06:34:03.428Z,91
2019-02-24T06:35:03.189Z,91.2
2019-02-24T06:36:03.351Z,89.1
2019-02-24T06:37:02.967Z,89.1
2019-02-24T06:38:03.019Z,90.3
2019-02-24T06:39:03.832Z,90.3
2019-02-24T06:40:02.964Z,91.2
2019-02-24T06:41:03.917Z,91.7
2019-02-24T06:42:03.220Z,90.3
2019-02-24T06:43:03.753Z,89.8
2019-02-24T06:44:03.329Z,90
2019-02-24T06:45:03.704Z,89.3
2019-02-24T06:46:03.169Z,91.2
2019-02-24T06:47:03.720Z,90.5
2019-02-24T06:48:03.229Z,90.3
2019-02-24T06:49:03.457Z,90
2019-02-24T06:50:03.152Z,90
2019-02-24T06:51:03.586Z,90.3
2019-02-24T06:52:02.888Z,89.3
2019-02-24T06:53:03.324Z,89.8
2019-02-24T06:54:03.684Z,90
2019-02-24T06:55:03.167Z,89.6
2019-02-24T06:56:02.880Z,89.8
2019-02-24T06:57:03.248Z,88.4
2019-02-24T06:58:02.981Z,88.9
2019-02-24T06:59:03.436Z,87
2019-02-24T07:00:03.790Z,88.4
2019-02-24T07:01:03.051Z,88.2
2019-02-24T07:02:03.775Z,89.3
2019-02-24T07:03:03.101Z,88.2
2019-02-24T07:04:03.491Z,88.2
2019-02-24T07:05:03.523Z,88.6
2019-02-24T07:06:02.855Z,91.7
2019-02-24T07:07:03.192Z,89.8
2019-02-24T07:08:02.929Z,92.4
2019-02-24T07:09:03.431Z,91.9
2019-02-24T07:10:03.045Z,91.9
2019-02-24T07:11:03.482Z,93.3
2019-02-24T07:12:02.966Z,92.6
2019-02-24T07:13:03.162Z,92.6
2019-02-24T07:14:03.693Z,92.8
2019-02-24T07:15:03.140Z,91.9
2019-02-24T07:16:03.598Z,91.2
2019-02-24T07:17:03.835Z,91
2019-02-24T07:18:03.835Z,90.3
2019-02-24T07:19:03.931Z,91.2
2019-02-24T07:20:03.277Z,90.7
2019-02-24T07:21:03.338Z,89.1
2019-02-24T07:22:03.892Z,87.7
2019-02-24T07:23:03.281Z,89.1
2019-02-24T07:24:03.107Z,87.7
2019-02-24T07:25:03.412Z,89.1
2019-02-24T07:26:03.422Z,86.5
2019-02-24T07:27:03.264Z,87.5
2019-02-24T07:28:03.714Z,87
2019-02-24T07:29:03.567Z,87.9
2019-02-24T07:30:03.023Z,87.9
2019-02-24T07:31:03.612Z,87.5
2019-02-24T07:32:02.669Z,85.1
2019-02-24T07:33:03.190Z,86.1
2019-02-24T07:34:02.717Z,85.8
2019-02-24T07:35:03.360Z,86.3
2019-02-24T07:36:03.782Z,85.6
2019-02-24T07:37:13.322Z,86.8
2019-02-24T07:38:03.774Z,86.8
2019-02-24T07:39:03.421Z,87.2
2019-02-24T07:40:03.674Z,86.3
2019-02-24T07:41:03.240Z,86.5
2019-02-24T07:42:03.447Z,86.8
2019-02-24T07:43:03.047Z,87.5
2019-02-24T07:44:03.510Z,87
2019-02-24T07:45:03.117Z,87.5
2019-02-24T07:46:03.536Z,87.2
2019-02-24T07:47:02.724Z,84.9
2019-02-24T07:48:03.474Z,85.6
2019-02-24T07:49:02.999Z,85.6
2019-02-24T07:50:03.449Z,84.2
2019-02-24T07:51:02.776Z,86.5
2019-02-24T07:52:03.313Z,85.4
2019-02-24T07:53:02.857Z,85.4
2019-02-24T07:54:03.371Z,86.1
2019-02-24T07:55:02.962Z,86.5
2019-02-24T07:56:03.308Z,86.1
2019-02-24T07:57:02.661Z,87.2
2019-02-24T07:58:02.970Z,86.1
2019-02-24T07:59:03.656Z,85.4
2019-02-24T08:00:03.227Z,86.5
2019-02-24T08:01:02.886Z,86.8
2019-02-24T08:02:03.322Z,86.8
2019-02-24T08:03:03.808Z,85.4
2019-02-24T08:04:03.275Z,85.1
2019-02-24T08:05:03.991Z,85.1
2019-02-24T08:06:03.403Z,84.7
2019-02-24T08:07:03.735Z,83
2019-02-24T08:08:03.710Z,83.5
2019-02-24T08:09:03.596Z,84.9
2019-02-24T08:10:02.933Z,82.1
2019-02-24T08:11:03.359Z,84.4
2019-02-24T08:12:03.083Z,84.9
2019-02-24T08:13:03.511Z,83.7
2019-02-24T08:14:04.021Z,86.1
2019-02-24T08:15:03.476Z,82.3
2019-02-24T08:16:03.637Z,85.1
2019-02-24T08:17:03.132Z,85.1
2019-02-24T08:18:03.567Z,85.1
2019-02-24T08:19:03.021Z,86.8
2019-02-24T08:20:03.304Z,87.5
2019-02-24T08:21:03.316Z,86.8
2019-02-24T08:22:03.188Z,85.8
2019-02-24T08:23:03.771Z,87
2019-02-24T08:24:03.002Z,86.3
2019-02-24T08:25:03.590Z,87.7
2019-02-24T08:26:03.094Z,87.7
2019-02-24T08:27:02.701Z,87.9
2019-02-24T08:28:03.251Z,87.9
2019-02-24T08:29:03.724Z,89.3
2019-02-24T08:30:03.393Z,87.7
2019-02-24T08:31:03.828Z,87.7
2019-02-24T08:32:03.162Z,88.4
2019-02-24T08:33:03.698Z,87.5
2019-02-24T08:34:03.116Z,88.6
2019-02-24T08:35:03.580Z,86.8
2019-02-24T08:36:03.048Z,87.2
2019-02-24T08:37:03.593Z,87.5
2019-02-24T08:38:03.002Z,87.2
2019-02-24T08:39:03.797Z,87.9
2019-02-24T08:40:03.035Z,87.2
2019-02-24T08:41:03.530Z,87
2019-02-24T08:42:03.297Z,86.5
2019-02-24T08:43:03.304Z,87.5
2019-02-24T08:44:02.806Z,87.2
2019-02-24T08:45:03.344Z,87.2
2019-02-24T08:46:03.844Z,88.9
2019-02-24T08:47:03.108Z,87.5
2019-02-24T08:48:03.561Z,88.9
2019-02-24T08:49:03.716Z,88.4
2019-02-24T08:50:03.115Z,87.9
2019-02-24T08:51:03.543Z,88.9
2019-02-24T08:52:03.445Z,89.1
2019-02-24T08:53:03.468Z,87.9
2019-02-24T08:54:03.272Z,89.6
2019-02-24T08:55:03.802Z,88.6
2019-02-24T08:56:03.904Z,88.4
2019-02-24T08:57:03.455Z,89.3
2019-02-24T08:58:03.745Z,87.9
2019-02-24T08:59:03.460Z,89.3
2019-02-24T09:00:03.078Z,87.9
2019-02-24T09:01:03.397Z,90.7
2019-02-24T09:02:03.490Z,89.6
2019-02-24T09:03:02.980Z,88.9
2019-02-24T09:04:03.751Z,89.8
2019-02-24T09:05:03.645Z,89.3
2019-02-24T09:06:03.366Z,88.9
2019-02-24T09:07:03.791Z,88.6
2019-02-24T09:08:03.194Z,88.4
2019-02-24T09:09:03.718Z,88.6
2019-02-24T09:10:03.185Z,86.1
2019-02-24T09:11:03.697Z,87.2
2019-02-24T09:12:03.061Z,85.1
2019-02-24T09:13:03.330Z,87.7
2019-02-24T09:14:03.053Z,86.8
2019-02-24T09:15:03.468Z,85.4
2019-02-24T09:16:03.654Z,87.5
2019-02-24T09:17:03.330Z,85.8
2019-02-24T09:18:02.992Z,85.6
2019-02-24T09:19:03.098Z,86.1
2019-02-24T09:20:03.929Z,86.3
2019-02-24T09:21:03.021Z,87.5
2019-02-24T09:22:02.935Z,87.5
2019-02-24T09:23:03.462Z,87.5
2019-02-24T09:24:02.803Z,88.2
2019-02-24T09:25:03.820Z,87.7
2019-02-24T09:26:02.920Z,87.5
2019-02-24T09:27:03.415Z,89.1
2019-02-24T09:28:03.034Z,87.7
2019-02-24T09:29:03.188Z,89.3
2019-02-24T09:30:03.116Z,87.9
2019-02-24T09:31:03.386Z,87.9
2019-02-24T09:32:03.138Z,89.3
2019-02-24T09:33:03.561Z,88.4
2019-02-24T09:34:02.880Z,88.6
2019-02-24T09:35:03.615Z,87.9
2019-02-24T09:36:02.931Z,87.7
2019-02-24T09:37:03.507Z,88.4
2019-02-24T09:38:03.157Z,87.5
2019-02-24T09:39:03.313Z,90.3
2019-02-24T09:40:03.953Z,89.1
2019-02-24T09:41:03.177Z,89.8
2019-02-24T09:42:03.759Z,88.4
2019-02-24T09:43:03.276Z,90
2019-02-24T09:44:03.836Z,90.3
2019-02-24T09:45:03.154Z,88.6
2019-02-24T09:46:03.217Z,89.1
2019-02-24T09:47:03.593Z,91.2
2019-02-24T09:48:03.232Z,89.6
2019-02-24T09:49:03.032Z,89.8
2019-02-24T09:50:03.698Z,91
2019-02-24T09:51:03.626Z,90
2019-02-24T09:52:03.198Z,90.7
2019-02-24T09:53:03.450Z,89.8
2019-02-24T09:54:02.739Z,90
2019-02-24T09:55:03.353Z,89.8
2019-02-24T09:56:02.987Z,89.6
2019-02-24T09:57:03.589Z,90
2019-02-24T09:58:02.996Z,89.8
2019-02-24T09:59:03.090Z,89.3
2019-02-24T10:00:03.512Z,89.6
2019-02-24T10:01:11.262Z,88.6
2019-02-24T10:02:03.819Z,88.9
2019-02-24T10:03:03.415Z,88.2
2019-02-24T10:04:03.825Z,88.9
2019-02-24T10:05:03.477Z,88.9
2019-02-24T10:06:03.188Z,87.7
2019-02-24T10:07:02.877Z,89.8
2019-02-24T10:08:03.439Z,90.7
2019-02-24T10:09:02.945Z,89.8
2019-02-24T10:10:03.752Z,90
2019-02-24T10:11:03.836Z,90.7
2019-02-24T10:12:03.025Z,89.3
2019-02-24T10:13:03.826Z,90.3
2019-02-24T10:14:03.095Z,88.2
2019-02-24T10:15:03.405Z,89.1
2019-02-24T10:16:03.194Z,89.6
2019-02-24T10:17:03.568Z,88.9
2019-02-24T10:18:02.739Z,88.2
2019-02-24T10:19:03.201Z,87.5
2019-02-24T10:20:02.912Z,85.8
2019-02-24T10:21:02.084Z,88.2
2019-02-24T10:22:02.693Z,87.5
2019-02-24T10:23:03.433Z,87
2019-02-24T10:24:03.813Z,89.1
2019-02-24T10:25:03.329Z,87.2
2019-02-24T10:26:03.631Z,87.7
2019-02-24T10:27:02.955Z,86.8
2019-02-24T10:28:03.495Z,87
2019-02-24T10:29:03.162Z,87.7
2019-02-24T10:30:04.001Z,86.3
2019-02-24T10:31:03.749Z,88.4
2019-02-24T10:32:03.341Z,87.5
2019-02-24T10:33:03.723Z,88.6
2019-02-24T10:34:03.308Z,88.2
2019-02-24T10:35:03.732Z,88.6
2019-02-24T10:36:03.161Z,90.3
2019-02-24T10:37:03.612Z,92.1
2019-02-24T10:38:03.990Z,90
2019-02-24T10:39:03.185Z,91.7
2019-02-24T10:40:03.301Z,91.2
2019-02-24T10:41:02.269Z,92.8
2019-02-24T10:42:03.755Z,91.4
2019-02-24T10:43:03.373Z,93.3
2019-02-24T10:44:03.631Z,93.8
2019-02-24T10:45:03.229Z,92.4
2019-02-24T10:46:03.217Z,94.7
2019-02-24T10:47:03.153Z,94
2019-02-24T10:48:03.540Z,94.9
2019-02-24T10:49:03.972Z,93.3
2019-02-24T10:50:03.227Z,93.5
2019-02-24T10:51:03.670Z,92.4
2019-02-24T10:52:02.875Z,91.2
2019-02-24T10:53:03.575Z,92.1
2019-02-24T10:54:03.026Z,91.2
2019-02-24T10:55:02.800Z,91.2
2019-02-24T10:56:03.762Z,92.1
2019-02-24T10:57:03.404Z,91.7
2019-02-24T10:58:03.592Z,92.1
2019-02-24T10:59:03.458Z,92.1
2019-02-24T11:00:03.812Z,91.7
2019-02-24T11:01:03.592Z,91.2
2019-02-24T11:02:03.065Z,91.4
2019-02-24T11:03:03.183Z,91
2019-02-24T11:04:03.746Z,91.7
2019-02-24T11:05:02.940Z,91.7
2019-02-24T11:06:03.567Z,89.6
2019-02-24T11:07:02.985Z,90.7
2019-02-24T11:08:03.251Z,90.7
2019-02-24T11:09:03.405Z,91
2019-02-24T11:10:04.281Z,92.1
2019-02-24T11:11:03.339Z,92.8
2019-02-24T11:12:03.445Z,93.1
2019-02-24T11:13:02.888Z,92.4
2019-02-24T11:14:03.925Z,91.9
2019-02-24T11:15:03.303Z,92.6
2019-02-24T11:16:03.595Z,91.4
2019-02-24T11:17:03.315Z,92.4
2019-02-24T11:18:02.982Z,93.3
2019-02-24T11:19:03.642Z,94
2019-02-24T11:20:03.313Z,94.9
2019-02-24T11:21:03.535Z,96.3
2019-02-24T11:22:03.101Z,95.9
2019-02-24T11:23:03.305Z,95.4
2019-02-24T11:24:02.946Z,95.9
2019-02-24T11:25:03.231Z,95.6
2019-02-24T11:26:03.562Z,95.9
2019-02-24T11:27:03.552Z,96.6
2019-02-24T11:28:03.512Z,97.3
2019-02-24T11:29:03.103Z,96.8
2019-02-24T11:30:03.146Z,96.1
2019-02-24T11:31:02.805Z,97.7
2019-02-24T11:32:03.220Z,96.3
2019-02-24T11:33:02.959Z,98.7
2019-02-24T11:34:03.466Z,96.6
2019-02-24T11:35:03.234Z,98
2019-02-24T11:36:03.480Z,96.1
2019-02-24T11:37:03.337Z,97.5
2019-02-24T11:38:03.313Z,95.6
2019-02-24T11:39:03.802Z,94.9
2019-02-24T11:40:03.036Z,96.1
2019-02-24T11:41:02.791Z,95.9
2019-02-24T11:42:03.468Z,95.2
2019-02-24T11:43:03.438Z,94.9
2019-02-24T11:44:03.111Z,94.9
2019-02-24T11:45:03.866Z,93.3
2019-02-24T11:46:02.780Z,92.8
2019-02-24T11:47:03.733Z,91.4
2019-02-24T11:48:03.097Z,93.3
2019-02-24T11:49:03.657Z,92.1
2019-02-24T11:50:03.214Z,94
2019-02-24T11:51:03.422Z,95.2
2019-02-24T11:52:04.325Z,93.3
2019-02-24T11:53:03.659Z,94
2019-02-24T11:54:02.924Z,92.8
2019-02-24T11:55:03.312Z,93.3
2019-02-24T11:56:03.673Z,92.4
2019-02-24T11:57:03.036Z,91.7
2019-02-24T11:58:03.753Z,93.3
2019-02-24T11:59:02.955Z,91.7
2019-02-24T12:00:03.747Z,91.4
2019-02-24T12:01:03.072Z,92.4
2019-02-24T12:02:03.696Z,90
2019-02-24T12:03:03.083Z,93.1
2019-02-24T12:04:03.637Z,92.8
2019-02-24T12:05:03.030Z,94.5
2019-02-24T12:06:03.638Z,94.5
2019-02-24T12:07:03.788Z,96.3
2019-02-24T12:08:03.039Z,96.1
2019-02-24T12:09:05.709Z,95.6
2019-02-24T12:10:03.043Z,94.5
2019-02-24T12:11:03.497Z,95.2
2019-02-24T12:12:03.111Z,95.9
2019-02-24T12:13:03.643Z,94.7
2019-02-24T12:14:03.878Z,98.2
2019-02-24T12:15:03.567Z,97.3
2019-02-24T12:16:03.450Z,97
2019-02-24T12:17:03.287Z,97.5
2019-02-24T12:18:03.683Z,97.7
2019-02-24T12:19:03.371Z,96.1
2019-02-24T12:20:03.603Z,98.7
2019-02-24T12:21:03.076Z,96.6
2019-02-24T12:22:03.150Z,97.5
2019-02-24T12:23:03.645Z,97.7
2019-02-24T12:24:03.622Z,97
2019-02-24T12:25:03.577Z,98.2
2019-02-24T12:26:03.056Z,96.3
2019-02-24T12:27:03.249Z,96.8
2019-02-24T12:28:03.480Z,96.3
2019-02-24T12:29:03.840Z,96.6
2019-02-24T12:30:03.318Z,96.1
2019-02-24T12:31:03.828Z,95.9
2019-02-24T12:32:03.316Z,95.4
2019-02-24T12:33:03.761Z,95.2
2019-02-24T12:34:03.032Z,95.2
2019-02-24T12:35:03.684Z,94.2
2019-02-24T12:36:03.207Z,94.2
2019-02-24T12:37:03.756Z,91.9
2019-02-24T12:38:03.114Z,95.2
2019-02-24T12:39:03.320Z,92.8
2019-02-24T12:40:03.978Z,95.2
2019-02-24T12:41:03.137Z,93.5
2019-02-24T12:42:02.103Z,94.2
2019-02-24T12:43:04.106Z,93.3
2019-02-24T12:44:03.970Z,93.5
2019-02-24T12:45:03.532Z,93.1
2019-02-24T12:46:03.316Z,94.5
2019-02-24T12:47:03.529Z,95.6
2019-02-24T12:48:03.096Z,96.1
2019-02-24T12:49:03.412Z,95.2
2019-02-24T12:50:04.020Z,95.2
2019-02-24T12:51:03.995Z,96.1
2019-02-24T12:52:03.267Z,95.6
2019-02-24T12:53:03.362Z,96.1
2019-02-24T12:54:03.054Z,96.6
2019-02-24T12:55:03.624Z,99.6
2019-02-24T12:56:03.900Z,98.9
2019-02-24T12:57:03.356Z,99.4
2019-02-24T12:58:03.774Z,100.5
2019-02-24T12:59:03.170Z,100.8
2019-02-24T13:00:03.663Z,101.9
2019-02-24T13:01:03.363Z,102.4
2019-02-24T13:02:06.274Z,101
2019-02-24T13:03:03.310Z,102.6
2019-02-24T13:04:03.485Z,101.2
2019-02-24T13:05:03.466Z,99.4
2019-02-24T13:06:03.541Z,99.1
2019-02-24T13:07:03.006Z,98.2
2019-02-24T13:08:03.222Z,99.1
2019-02-24T13:09:04.042Z,97.5
2019-02-24T13:10:03.247Z,96.8
2019-02-24T13:11:03.840Z,98.2
2019-02-24T13:12:03.227Z,96.6
2019-02-24T13:13:03.777Z,95.9
2019-02-24T13:14:02.870Z,97.5
2019-02-24T13:15:03.724Z,95.9
2019-02-24T13:16:03.733Z,97
2019-02-24T13:17:03.192Z,96.3
2019-02-24T13:18:03.486Z,96.6
2019-02-24T13:19:03.183Z,93.8
2019-02-24T13:20:03.750Z,95.2
2019-02-24T13:21:03.513Z,92.8
2019-02-24T13:22:03.709Z,93.1
2019-02-24T13:23:03.015Z,93.5